Time;durP1;ratioP1;P1;durP2;ratioP2;P2;SDS_P1;SDS_P2;PMS_P1;PMS_P2;Temp;Humidity;BMP_temperature;BMP_pressure;BME280_temperature;BME280_humidity;BME280_pressure;Samples;Min_cycle;Max_cycle;Signal;HPM_P1;HPM_P2
2022/05/29 00:01:50;;;;;;;7.80;2.20;;;9.60;99.90;;;;;;5054032;28;20290;-60
2022/05/29 00:04:16;;;;;;;2.77;1.77;;;9.60;99.90;;;;;;5054498;28;20193;-60
2022/05/29 00:06:45;;;;;;;3.33;1.60;;;9.50;99.90;;;;;;5053988;28;20583;-61
2022/05/29 00:09:16;;;;;;;4.27;1.63;;;9.50;99.90;;;;;;5054189;28;20202;-60
2022/05/29 00:11:42;;;;;;;5.17;2.20;;;9.50;99.90;;;;;;5071943;28;20200;-59
2022/05/29 00:14:08;;;;;;;3.70;1.77;;;9.50;99.90;;;;;;5074326;28;20187;-60
2022/05/29 00:16:34;;;;;;;4.20;2.00;;;9.40;99.90;;;;;;5073666;28;20182;-60
2022/05/29 00:18:59;;;;;;;2.57;1.93;;;9.40;99.90;;;;;;5074106;28;20178;-60
2022/05/29 00:21:26;;;;;;;6.80;2.00;;;9.40;99.90;;;;;;5073897;28;20176;-60
2022/05/29 00:23:53;;;;;;;3.87;2.10;;;9.40;99.90;;;;;;5072415;28;20326;-60
2022/05/29 00:26:20;;;;;;;3.47;2.10;;;9.40;99.90;;;;;;5073785;28;20665;-60
2022/05/29 00:28:46;;;;;;;3.00;2.10;;;9.40;99.90;;;;;;5073717;28;20580;-59
2022/05/29 00:31:13;;;;;;;5.90;2.00;;;9.40;99.90;;;;;;5073659;28;20202;-60
2022/05/29 00:33:40;;;;;;;4.70;2.10;;;9.40;99.90;;;;;;5073240;28;20186;-60
2022/05/29 00:36:11;;;;;;;7.63;2.20;;;9.40;99.90;;;;;;5073642;28;20255;-59
2022/05/29 00:38:39;;;;;;;4.23;1.70;;;9.40;99.90;;;;;;5073502;28;20174;-60
2022/05/29 00:41:22;;;;;;;5.93;2.13;;;9.40;99.90;;;;;;5068816;28;20604;-60
2022/05/29 00:44:23;;;;;;;4.70;1.87;;;9.40;99.90;;;;;;5053456;28;20620;-60
2022/05/29 00:46:50;;;;;;;3.20;1.80;;;9.40;99.90;;;;;;5045421;28;20196;-60
2022/05/29 00:49:17;;;;;;;4.97;2.00;;;9.30;99.90;;;;;;5053523;28;20256;-60
2022/05/29 00:51:48;;;;;;;3.40;1.90;;;9.40;99.90;;;;;;5053231;28;20644;-60
2022/05/29 00:54:15;;;;;;;3.33;2.10;;;9.40;99.90;;;;;;5053575;28;20258;-59
2022/05/29 00:56:41;;;;;;;2.70;1.57;;;9.50;99.90;;;;;;5053065;28;20263;-59
2022/05/29 00:59:12;;;;;;;4.50;1.93;;;9.50;99.90;;;;;;5052547;28;20192;-60
2022/05/29 01:01:39;;;;;;;3.83;1.80;;;9.50;99.90;;;;;;5052978;28;20229;-60
2022/05/29 01:04:05;;;;;;;4.30;1.90;;;9.50;99.90;;;;;;5053066;28;20213;-60
2022/05/29 01:06:30;;;;;;;3.87;1.90;;;9.60;99.90;;;;;;5052823;28;20218;-60
2022/05/29 01:08:59;;;;;;;5.67;1.97;;;9.50;99.90;;;;;;5052931;28;20302;-60
2022/05/29 01:11:37;;;;;;;6.83;2.20;;;9.50;99.90;;;;;;5067166;28;20183;-59
2022/05/29 01:14:24;;;;;;;3.30;1.73;;;9.50;99.90;;;;;;5073071;28;20176;-59
2022/05/29 01:17:08;;;;;;;3.20;2.07;;;9.40;99.90;;;;;;5072459;28;20179;-60
2022/05/29 01:19:50;;;;;;;3.83;2.10;;;9.40;99.90;;;;;;5072983;28;20604;-60
2022/05/29 01:22:27;;;;;;;5.57;2.07;;;9.30;99.90;;;;;;5072976;28;20213;-59
2022/05/29 01:25:19;;;;;;;3.07;1.90;;;9.30;99.90;;;;;;5072611;28;20217;-60
2022/05/29 01:28:05;;;;;;;5.97;2.10;;;9.20;99.90;;;;;;5072422;28;20203;-60
2022/05/29 01:30:41;;;;;;;6.50;2.17;;;9.20;99.90;;;;;;5072286;28;20199;-59
2022/05/29 01:33:32;;;;;;;4.70;1.90;;;9.20;99.90;;;;;;5072264;28;20179;-59
2022/05/29 01:36:09;;;;;;;3.03;2.00;;;9.20;99.90;;;;;;5072459;28;20163;-59
2022/05/29 01:38:53;;;;;;;5.77;1.87;;;9.20;99.90;;;;;;5072649;28;20642;-60
2022/05/29 01:41:23;;;;;;;2.90;1.80;;;9.30;99.90;;;;;;5066608;28;20254;-59
2022/05/29 01:43:59;;;;;;;7.23;2.00;;;9.20;99.90;;;;;;5052338;28;20237;-60
2022/05/29 01:46:33;;;;;;;6.70;2.60;;;9.30;99.90;;;;;;5052557;28;20592;-60
2022/05/29 01:49:26;;;;;;;5.47;2.00;;;9.30;99.90;;;;;;5052002;28;20196;-59
2022/05/29 01:51:59;;;;;;;5.27;2.73;;;9.30;99.90;;;;;;5052283;28;20173;-60
2022/05/29 01:54:35;;;;;;;5.73;2.10;;;9.20;99.90;;;;;;5052475;28;20180;-59
2022/05/29 01:57:24;;;;;;;5.20;2.10;;;9.20;99.90;;;;;;5051600;28;20691;-60
2022/05/29 02:00:05;;;;;;;9.23;2.50;;;9.20;99.90;;;;;;5052070;28;20219;-59
2022/05/29 02:02:51;;;;;;;4.20;2.43;;;9.10;99.90;;;;;;5051859;28;20168;-59
2022/05/29 02:05:29;;;;;;;3.93;2.20;;;9.10;99.90;;;;;;5052211;28;20237;-60
2022/05/29 02:08:08;;;;;;;5.07;2.20;;;9.10;99.90;;;;;;5051659;28;20633;-59
2022/05/29 02:10:54;;;;;;;5.33;2.23;;;9.10;99.90;;;;;;5060434;28;20175;-59
2022/05/29 02:13:39;;;;;;;7.33;2.60;;;9.10;99.90;;;;;;5072161;28;20163;-60
2022/05/29 02:16:16;;;;;;;5.77;2.47;;;9.10;99.90;;;;;;5072002;28;20168;-59
2022/05/29 02:19:16;;;;;;;5.60;2.30;;;9.10;99.90;;;;;;5071591;28;20181;-60
2022/05/29 02:21:47;;;;;;;3.07;2.07;;;9.20;99.90;;;;;;5071972;28;20190;-60
2022/05/29 02:24:16;;;;;;;6.90;2.80;;;9.20;99.90;;;;;;5071944;28;20228;-59
2022/05/29 02:26:51;;;;;;;7.77;2.50;;;9.30;99.90;;;;;;5071470;28;20257;-59
2022/05/29 02:29:17;;;;;;;5.83;2.10;;;9.40;99.90;;;;;;5071898;28;20196;-60
2022/05/29 02:32:04;;;;;;;4.30;2.30;;;9.40;99.90;;;;;;5071783;28;20187;-59
2022/05/29 02:35:00;;;;;;;6.60;2.73;;;9.40;99.90;;;;;;5071994;28;20661;-59
2022/05/29 02:37:34;;;;;;;5.50;2.27;;;9.50;99.90;;;;;;5071663;28;20567;-59
2022/05/29 02:40:18;;;;;;;8.57;3.00;;;9.60;99.90;;;;;;5071725;28;20662;-60
2022/05/29 02:42:57;;;;;;;5.37;2.43;;;9.60;99.90;;;;;;5053224;28;20185;-59
2022/05/29 02:45:44;;;;;;;5.37;2.40;;;9.70;99.90;;;;;;5051861;28;20209;-60
2022/05/29 02:48:39;;;;;;;4.57;2.40;;;9.80;99.90;;;;;;5051508;28;20197;-59
2022/05/29 02:51:37;;;;;;;4.17;2.50;;;9.90;99.90;;;;;;5043827;28;20662;-59
2022/05/29 02:54:03;;;;;;;4.23;2.57;;;10.00;99.90;;;;;;5051528;28;20174;-60
2022/05/29 02:56:29;;;;;;;5.43;2.40;;;10.10;99.90;;;;;;5051572;28;20649;-60
2022/05/29 02:58:57;;;;;;;7.53;3.00;;;10.10;99.90;;;;;;5051450;28;20189;-59
2022/05/29 03:01:43;;;;;;;4.87;2.50;;;10.20;99.90;;;;;;5051383;28;20541;-59
2022/05/29 03:04:23;;;;;;;7.23;2.60;;;10.20;99.90;;;;;;5051439;28;20207;-60
2022/05/29 03:07:26;;;;;;;15.13;3.00;;;10.20;99.90;;;;;;5051340;28;20639;-59
2022/05/29 03:10:03;;;;;;;4.43;2.43;;;10.20;99.90;;;;;;5053915;28;20214;-59
2022/05/29 03:12:59;;;;;;;4.63;2.70;;;10.30;99.90;;;;;;5071503;28;20177;-59
2022/05/29 03:16:03;;;;;;;5.07;2.80;;;10.30;99.90;;;;;;5071676;28;20184;-59
2022/05/29 03:18:50;;;;;;;4.37;2.60;;;10.40;99.90;;;;;;5071266;28;20224;-59
2022/05/29 03:21:34;;;;;;;5.97;2.40;;;10.40;99.90;;;;;;5072481;28;20167;-59
2022/05/29 03:24:05;;;;;;;7.20;2.93;;;10.40;99.90;;;;;;5074732;28;20234;-59
2022/05/29 03:26:50;;;;;;;5.20;2.57;;;10.40;99.90;;;;;;5075012;28;20253;-59
2022/05/29 03:29:37;;;;;;;7.73;3.07;;;10.50;99.90;;;;;;5074742;28;20197;-60
2022/05/29 03:32:04;;;;;;;4.73;2.60;;;10.50;99.90;;;;;;5074696;28;20173;-60
2022/05/29 03:34:29;;;;;;;4.57;2.47;;;10.50;99.90;;;;;;5074241;28;20187;-60
2022/05/29 03:36:55;;;;;;;4.20;2.80;;;10.50;99.90;;;;;;5073397;28;20699;-60
2022/05/29 03:39:21;;;;;;;10.20;2.90;;;10.40;99.90;;;;;;5074293;28;20185;-60
2022/05/29 03:41:49;;;;;;;6.77;2.80;;;10.40;99.90;;;;;;5064392;28;20197;-60
2022/05/29 03:44:17;;;;;;;7.77;4.40;;;10.30;99.90;;;;;;5054480;28;20231;-60
2022/05/29 03:46:44;;;;;;;12.43;4.03;;;10.30;99.90;;;;;;5054196;28;20198;-60
2022/05/29 03:49:11;;;;;;;7.53;3.37;;;10.30;99.90;;;;;;5054489;28;20218;-61
2022/05/29 03:51:38;;;;;;;8.70;3.27;;;10.30;99.90;;;;;;5054372;28;20186;-60
2022/05/29 03:54:05;;;;;;;8.43;3.23;;;10.40;99.90;;;;;;5054135;28;20188;-60
2022/05/29 03:56:31;;;;;;;4.27;3.23;;;10.40;99.90;;;;;;5054430;28;20262;-59
2022/05/29 03:58:57;;;;;;;7.37;3.47;;;10.50;99.90;;;;;;5053775;28;20207;-60
2022/05/29 04:01:23;;;;;;;7.57;3.43;;;10.50;99.90;;;;;;5054310;28;20272;-59
2022/05/29 04:03:49;;;;;;;7.20;3.27;;;10.70;99.90;;;;;;5053702;28;20215;-59
2022/05/29 04:06:15;;;;;;;29.73;4.73;;;10.90;99.90;;;;;;5054124;28;20235;-60
2022/05/29 04:14:10;;;;;;;3.97;2.23;;;11.10;99.90;;;;;;5073806;28;20292;-60
2022/05/29 04:16:36;;;;;;;6.43;2.60;;;11.10;99.90;;;;;;5073886;28;20268;-60
2022/05/29 04:19:02;;;;;;;6.83;2.27;;;11.00;99.90;;;;;;5073759;28;20185;-60
2022/05/29 04:21:28;;;;;;;4.00;2.10;;;11.00;99.90;;;;;;5073803;28;20290;-60
2022/05/29 04:23:53;;;;;;;6.43;2.37;;;10.90;99.90;;;;;;5073544;28;20677;-59
2022/05/29 04:26:19;;;;;;;7.80;2.53;;;10.90;99.90;;;;;;5073702;28;20186;-60
2022/05/29 04:28:45;;;;;;;8.70;2.10;;;10.90;99.90;;;;;;5073831;28;20291;-60
2022/05/29 04:31:11;;;;;;;7.90;2.67;;;10.90;99.90;;;;;;5073873;28;20267;-60
2022/05/29 04:33:37;;;;;;;4.60;2.30;;;11.00;99.90;;;;;;5073427;28;20633;-60
2022/05/29 04:36:04;;;;;;;4.03;2.17;;;11.10;99.90;;;;;;5073052;28;20234;-60
2022/05/29 04:38:29;;;;;;;7.00;2.40;;;11.20;99.90;;;;;;5073352;28;20549;-60
2022/05/29 04:40:57;;;;;;;5.83;2.03;;;11.30;99.90;;;;;;5070178;28;20179;-60
2022/05/29 04:43:23;;;;;;;3.33;1.70;;;11.50;99.90;;;;;;5053568;28;20177;-60
2022/05/29 04:45:54;;;;;;;4.37;1.70;;;11.50;99.90;;;;;;5053162;28;20179;-60
2022/05/29 04:48:20;;;;;;;5.67;1.83;;;11.60;99.90;;;;;;5053386;28;20666;-60
2022/05/29 04:50:46;;;;;;;10.70;1.97;;;11.80;99.90;;;;;;5053219;28;20177;-60
2022/05/29 04:53:12;;;;;;;4.73;1.70;;;11.90;99.90;;;;;;5053136;28;20277;-60
2022/05/29 04:55:40;;;;;;;5.90;1.87;;;11.90;99.90;;;;;;5052943;28;20173;-60
2022/05/29 04:58:06;;;;;;;3.07;1.70;;;12.00;99.90;;;;;;5052797;28;20190;-60
2022/05/29 05:00:32;;;;;;;5.30;2.40;;;12.10;99.90;;;;;;5052533;28;20208;-61
2022/05/29 05:02:58;;;;;;;3.93;1.70;;;12.30;99.90;;;;;;5052353;28;20187;-60
2022/05/29 05:05:25;;;;;;;6.57;2.30;;;12.50;99.90;;;;;;5052719;28;20204;-60
2022/05/29 05:07:51;;;;;;;3.40;1.30;;;12.70;99.90;;;;;;5052492;28;20669;-60
2022/05/29 05:10:17;;;;;;;6.47;1.40;;;12.90;99.90;;;;;;5058863;28;20186;-60
2022/05/29 05:12:44;;;;;;;6.67;1.20;;;12.90;99.90;;;;;;5071509;28;20193;-61
2022/05/29 05:15:12;;;;;;;3.33;1.10;;;12.90;99.90;;;;;;5072551;28;20648;-60
2022/05/29 05:17:38;;;;;;;2.60;1.63;;;12.90;99.90;;;;;;5072756;28;20191;-60
2022/05/29 05:20:06;;;;;;;1.63;1.10;;;13.00;99.90;;;;;;5072482;28;20182;-60
2022/05/29 05:22:33;;;;;;;2.17;0.90;;;13.10;99.90;;;;;;5070644;28;20576;-61
2022/05/29 05:24:58;;;;;;;3.30;0.90;;;13.20;99.90;;;;;;5072037;28;20250;-60
2022/05/29 05:27:25;;;;;;;1.80;1.00;;;13.20;99.90;;;;;;5070999;28;20209;-61
2022/05/29 05:29:51;;;;;;;3.97;1.23;;;13.30;99.90;;;;;;5072041;28;20243;-60
2022/05/29 05:32:18;;;;;;;5.60;1.20;;;13.20;99.90;;;;;;5072447;28;20208;-60
2022/05/29 05:34:43;;;;;;;2.27;1.23;;;13.20;99.90;;;;;;5072003;28;20208;-61
2022/05/29 05:37:10;;;;;;;2.77;1.87;;;13.10;99.90;;;;;;5072282;28;20515;-61
2022/05/29 05:39:36;;;;;;;3.03;0.97;;;13.10;99.90;;;;;;5071903;28;20193;-61
2022/05/29 05:42:02;;;;;;;7.17;1.07;;;13.10;99.90;;;;;;5059685;28;20193;-61
2022/05/29 05:44:28;;;;;;;7.50;1.30;;;13.20;99.90;;;;;;5051956;28;20217;-59
2022/05/29 05:46:54;;;;;;;5.20;1.20;;;13.30;99.90;;;;;;5050484;28;20607;-61
2022/05/29 05:49:21;;;;;;;4.93;1.00;;;13.50;99.90;;;;;;5052007;28;20220;-61
2022/05/29 05:51:48;;;;;;;2.30;1.20;;;13.60;99.80;;;;;;5051818;28;20191;-60
2022/05/29 05:54:14;;;;;;;1.37;0.87;;;13.80;98.90;;;;;;5051565;28;20178;-59
2022/05/29 05:56:50;;;;;;;7.57;2.17;;;14.00;98.10;;;;;;5052084;28;20190;-62
2022/05/29 05:59:16;;;;;;;2.57;1.07;;;14.00;96.90;;;;;;5051715;28;20170;-60
2022/05/29 06:01:42;;;;;;;6.03;1.00;;;14.00;97.30;;;;;;5051712;28;20607;-61
2022/05/29 06:04:08;;;;;;;1.93;1.10;;;14.00;97.30;;;;;;5051414;28;20206;-61
2022/05/29 06:06:34;;;;;;;12.87;1.80;;;14.00;97.30;;;;;;5051724;28;20190;-61
2022/05/29 06:09:00;;;;;;;3.07;1.10;;;14.00;97.40;;;;;;5051542;28;20210;-61
2022/05/29 06:11:28;;;;;;;7.53;1.40;;;14.10;97.50;;;;;;5067070;28;20195;-61
2022/05/29 06:13:54;;;;;;;3.30;1.07;;;14.30;97.50;;;;;;5070029;28;20184;-60
2022/05/29 06:16:20;;;;;;;6.83;2.27;;;14.40;97.20;;;;;;5072276;28;20209;-60
2022/05/29 06:18:46;;;;;;;3.90;1.00;;;14.50;96.90;;;;;;5071826;28;20270;-59
2022/05/29 06:21:12;;;;;;;7.57;1.70;;;14.50;96.40;;;;;;5071497;28;20185;-60
2022/05/29 06:23:38;;;;;;;3.07;0.90;;;14.50;96.80;;;;;;5071357;28;20657;-60
2022/05/29 06:26:12;;;;;;;4.47;1.63;;;14.50;96.40;;;;;;5071371;28;20623;-60
2022/05/29 06:28:38;;;;;;;2.80;1.20;;;14.60;96.60;;;;;;5071612;28;20221;-60
2022/05/29 06:31:05;;;;;;;4.90;1.30;;;14.60;96.60;;;;;;5071415;28;20184;-60
2022/05/29 06:33:31;;;;;;;3.80;1.20;;;14.60;96.40;;;;;;5071943;28;20276;-59
2022/05/29 06:36:15;;;;;;;9.33;1.40;;;14.70;96.60;;;;;;5071140;28;20268;-61
2022/05/29 06:38:43;;;;;;;9.50;1.97;;;14.70;96.70;;;;;;5071429;28;20189;-60
2022/05/29 06:41:11;;;;;;;2.00;1.10;;;14.90;97.20;;;;;;5065008;28;20248;-60
2022/05/29 06:43:37;;;;;;;4.13;1.40;;;14.80;97.40;;;;;;5051095;28;20201;-60
2022/05/29 06:46:05;;;;;;;4.43;2.00;;;14.90;97.40;;;;;;5051133;28;20188;-60
2022/05/29 06:48:33;;;;;;;3.50;1.10;;;15.10;97.20;;;;;;5051403;28;20242;-61
2022/05/29 06:51:14;;;;;;;13.50;1.50;;;15.10;96.10;;;;;;5051010;28;20630;-60
2022/05/29 06:53:40;;;;;;;2.87;1.57;;;15.10;96.60;;;;;;5051315;28;20171;-62
2022/05/29 06:56:07;;;;;;;4.13;2.00;;;15.20;96.50;;;;;;5051813;28;20178;-60
2022/05/29 06:58:34;;;;;;;5.87;1.47;;;15.30;96.60;;;;;;5055113;28;20178;-60
2022/05/29 07:09:23;;;;;;;2.70;1.30;;;15.70;95.60;;;;;;5054609;28;20743;-61
2022/05/29 07:11:51;;;;;;;35.73;22.17;;;15.60;95.70;;;;;;5073466;28;20643;-60
2022/05/29 07:14:17;;;;;;;7.10;2.07;;;15.70;95.70;;;;;;5063684;28;20255;-59
2022/05/29 07:16:46;;;;;;;5.93;1.50;;;15.80;95.80;;;;;;5049158;28;20186;-59
2022/05/29 07:19:13;;;;;;;3.53;1.20;;;15.70;95.40;;;;;;5053527;28;20213;-60
2022/05/29 07:21:40;;;;;;;6.97;1.77;;;15.70;95.70;;;;;;5054301;28;20578;-59
2022/05/29 07:24:07;;;;;;;18.73;2.70;;;15.60;95.60;;;;;;5052904;28;20228;-62
2022/05/29 07:26:33;;;;;;;6.80;1.40;;;15.60;96.00;;;;;;5051560;28;20181;-61
2022/05/29 07:28:59;;;;;;;2.10;1.30;;;15.70;95.90;;;;;;5051243;28;20213;-61
2022/05/29 07:31:25;;;;;;;6.27;1.20;;;16.00;95.80;;;;;;5051458;28;20259;-61
2022/05/29 07:33:51;;;;;;;3.27;1.23;;;15.90;95.50;;;;;;5050949;28;20646;-60
2022/05/29 07:36:19;;;;;;;1.93;1.37;;;16.10;95.30;;;;;;5053354;28;20190;-58
2022/05/29 07:38:45;;;;;;;2.57;1.37;;;16.40;95.00;;;;;;5054587;28;20197;-57
2022/05/29 07:44:00;;;;;;;6.07;1.80;;;16.90;94.60;;;;;;5065458;28;20236;-59
2022/05/29 07:46:25;;;;;;;4.93;1.90;;;17.30;93.80;;;;;;5062421;28;20217;-58
2022/05/29 07:48:52;;;;;;;4.43;1.70;;;17.50;93.20;;;;;;5061507;28;20331;-58
2022/05/29 07:51:17;;;;;;;5.43;1.83;;;17.50;93.10;;;;;;5060145;28;20289;-61
2022/05/29 07:53:44;;;;;;;2.80;1.27;;;17.40;93.10;;;;;;5060795;28;20674;-58
2022/05/29 07:56:10;;;;;;;4.97;1.27;;;17.30;93.10;;;;;;5060138;28;20205;-57
2022/05/29 07:58:40;;;;;;;8.60;1.70;;;17.40;93.30;;;;;;5062855;28;20675;-62
2022/05/29 08:01:06;;;;;;;4.53;1.77;;;17.60;93.50;;;;;;5062356;28;20190;-61
2022/05/29 08:03:32;;;;;;;2.50;1.20;;;18.00;92.80;;;;;;5063008;28;20191;-60
2022/05/29 08:05:58;;;;;;;2.50;1.60;;;18.00;92.00;;;;;;5061522;28;20190;-65
2022/05/29 08:08:26;;;;;;;5.33;2.40;;;18.30;91.80;;;;;;5062045;28;20213;-62
2022/05/29 08:10:52;;;;;;;8.10;1.53;;;18.50;91.30;;;;;;5063050;28;20540;-60
2022/05/29 08:13:18;;;;;;;5.40;1.40;;;18.40;91.60;;;;;;5060465;28;20198;-59
2022/05/29 08:15:44;;;;;;;3.27;1.57;;;18.20;91.30;;;;;;5061840;28;20197;-61
2022/05/29 08:18:10;;;;;;;3.40;1.27;;;18.20;91.10;;;;;;5062170;28;20194;-62
2022/05/29 08:20:37;;;;;;;7.97;2.20;;;18.20;91.40;;;;;;5062197;28;20200;-59
2022/05/29 08:23:07;;;;;;;6.60;2.13;;;18.40;91.30;;;;;;5059968;28;20241;-61
2022/05/29 08:31:02;;;;;;;4.83;1.87;;;18.40;90.60;;;;;;5061613;28;20216;-61
2022/05/29 08:33:31;;;;;;;4.67;1.70;;;18.20;90.60;;;;;;5061575;28;20551;-62
2022/05/29 08:36:14;;;;;;;6.17;1.63;;;17.90;91.40;;;;;;5060754;28;20224;-62
2022/05/29 08:38:45;;;;;;;6.07;2.17;;;17.80;91.70;;;;;;5062140;28;20186;-61
2022/05/29 08:41:33;;;;;;;4.73;1.87;;;17.70;92.00;;;;;;5059497;28;20269;-61
2022/05/29 08:44:20;;;;;;;4.93;1.70;;;17.60;91.50;;;;;;5058224;28;20202;-63
2022/05/29 08:46:52;;;;;;;2.90;1.20;;;17.60;92.40;;;;;;5062163;28;20181;-61
2022/05/29 08:49:21;;;;;;;5.83;1.67;;;17.70;92.70;;;;;;5062104;28;20222;-61
2022/05/29 08:52:10;;;;;;;6.80;1.57;;;17.70;92.00;;;;;;5060550;28;20806;-61
2022/05/29 08:55:13;;;;;;;9.90;2.73;;;17.50;92.60;;;;;;5049664;28;20206;-59
2022/05/29 08:57:59;;;;;;;8.87;2.07;;;17.60;92.90;;;;;;5054814;28;20167;-57
2022/05/29 09:00:30;;;;;;;3.40;1.70;;;17.80;92.40;;;;;;5062110;28;20174;-58
2022/05/29 09:03:03;;;;;;;8.10;1.50;;;18.10;92.50;;;;;;5051575;28;20178;-62
2022/05/29 09:05:41;;;;;;;6.67;1.60;;;18.50;91.70;;;;;;5060193;28;20187;-61
2022/05/29 09:08:19;;;;;;;14.93;4.27;;;19.00;90.60;;;;;;5061040;28;20255;-62
2022/05/29 09:10:53;;;;;;;6.60;1.40;;;19.30;90.30;;;;;;5059989;28;20178;-63
2022/05/29 09:13:37;;;;;;;7.00;1.38;;;19.50;90.00;;;;;;5061079;28;20450;-58
2022/05/29 09:16:13;;;;;;;6.18;1.48;;;19.50;89.00;;;;;;5060844;28;20259;-58
2022/05/29 09:18:43;;;;;;;2.53;1.45;;;19.60;89.10;;;;;;5060221;28;20211;-60
2022/05/29 09:21:15;;;;;;;11.10;1.90;;;19.90;88.80;;;;;;5060843;28;20193;-63
2022/05/29 09:23:56;;;;;;;5.00;1.60;;;20.20;87.00;;;;;;5059962;28;20249;-63
2022/05/29 09:26:22;;;;;;;14.65;2.95;;;20.90;85.30;;;;;;5057580;28;20630;-63
2022/05/29 09:28:48;;;;;;;7.43;1.67;;;21.20;82.00;;;;;;5059242;28;20222;-63
2022/05/29 09:31:25;;;;;;;2.05;1.30;;;21.60;80.80;;;;;;5055990;28;20186;-60
2022/05/29 09:33:51;;;;;;;6.53;1.65;;;21.80;79.80;;;;;;5058672;28;20196;-60
2022/05/29 09:36:54;;;;;;;5.40;1.60;;;21.70;76.80;;;;;;5058681;28;20198;-60
2022/05/29 09:39:28;;;;;;;8.13;1.90;;;21.90;75.70;;;;;;5057534;28;20204;-60
2022/05/29 09:42:24;;;;;;;3.55;1.10;;;22.40;73.00;;;;;;5057406;28;20251;-60
2022/05/29 09:45:22;;;;;;;6.47;1.55;;;22.20;72.70;;;;;;5059230;28;20196;-61
2022/05/29 09:50:59;;;;;;;3.25;1.08;;;22.80;70.60;;;;;;5061542;28;20267;-62
2022/05/29 09:53:34;;;;;;;8.52;1.55;;;23.10;69.10;;;;;;5059878;28;20208;-62
2022/05/29 09:56:08;;;;;;;3.92;1.33;;;23.10;69.50;;;;;;5059416;28;20181;-60
2022/05/29 09:58:40;;;;;;;4.50;1.40;;;23.00;67.90;;;;;;5058885;28;20188;-58
2022/05/29 10:01:08;;;;;;;8.25;2.83;;;22.40;68.10;;;;;;5059123;28;20509;-58
2022/05/29 10:03:53;;;;;;;9.88;1.65;;;22.00;70.30;;;;;;5059044;28;20508;-59
2022/05/29 10:06:47;;;;;;;4.80;1.55;;;21.60;71.40;;;;;;5060985;28;20275;-66
2022/05/29 10:09:14;;;;;;;6.43;2.38;;;21.70;72.70;;;;;;5059265;28;20235;-61
2022/05/29 10:11:41;;;;;;;14.23;2.60;;;21.60;72.60;;;;;;5058869;28;20190;-59
2022/05/29 10:14:25;;;;;;;7.78;1.70;;;21.60;72.80;;;;;;5058773;28;20197;-60
2022/05/29 10:16:53;;;;;;;3.00;1.52;;;21.70;71.00;;;;;;5058137;28;20189;-61
2022/05/29 10:19:35;;;;;;;7.30;1.83;;;22.10;70.80;;;;;;5060327;28;20189;-60
2022/05/29 10:22:03;;;;;;;8.13;1.65;;;22.30;70.20;;;;;;5060467;28;20186;-61
2022/05/29 10:24:37;;;;;;;6.03;1.63;;;22.90;69.50;;;;;;5058798;28;20238;-60
2022/05/29 10:27:08;;;;;;;7.10;2.28;;;23.40;66.90;;;;;;5060053;28;20181;-60
2022/05/29 10:29:37;;;;;;;11.05;2.15;;;23.70;65.80;;;;;;5059243;28;20687;-61
2022/05/29 10:32:07;;;;;;;5.32;1.90;;;24.10;65.10;;;;;;5066208;28;20192;-64
2022/05/29 10:34:42;;;;;;;6.38;2.35;;;24.20;63.10;;;;;;5065672;28;20200;-60
2022/05/29 10:37:35;;;;;;;4.22;1.25;;;24.20;62.70;;;;;;5066704;28;20193;-61
2022/05/29 10:40:29;;;;;;;4.10;1.23;;;23.90;64.20;;;;;;5066280;28;20175;-60
2022/05/29 10:43:00;;;;;;;3.88;1.67;;;23.90;63.20;;;;;;5067356;28;20264;-60
2022/05/29 10:45:30;;;;;;;3.72;1.63;;;23.70;64.50;;;;;;5065113;28;20187;-61
2022/05/29 10:48:18;;;;;;;4.50;1.98;;;23.80;63.50;;;;;;5066246;28;20280;-61
2022/05/29 10:51:21;;;;;;;10.85;2.60;;;24.10;63.50;;;;;;5065803;28;20545;-62
2022/05/29 10:53:56;;;;;;;6.05;1.45;;;24.50;61.40;;;;;;5061538;28;20292;-61
2022/05/29 10:56:33;;;;;;;6.20;1.40;;;24.50;60.00;;;;;;5067273;28;20261;-59
2022/05/29 10:59:51;;;;;;;13.20;1.60;;;24.80;59.70;;;;;;5065759;28;20193;-62
2022/05/29 11:05:57;;;;;;;9.98;2.30;;;25.40;58.20;;;;;;5066338;28;20272;-61
2022/05/29 11:08:36;;;;;;;5.28;1.52;;;25.10;58.60;;;;;;5064974;28;20673;-62
2022/05/29 11:11:41;;;;;;;16.65;2.80;;;25.30;58.80;;;;;;5064284;28;20174;-63
2022/05/29 11:14:22;;;;;;;8.18;2.13;;;25.80;58.70;;;;;;5060928;28;20201;-68
2022/05/29 11:17:13;;;;;;;6.68;1.60;;;26.40;57.00;;;;;;5064517;28;20185;-66
2022/05/29 11:20:17;;;;;;;6.03;2.47;;;26.10;57.10;;;;;;5062415;28;20198;-62
2022/05/29 11:22:54;;;;;;;4.82;1.25;;;25.90;56.90;;;;;;5064184;28;20260;-60
2022/05/29 11:25:42;;;;;;;5.18;1.80;;;25.60;56.30;;;;;;5063791;28;20186;-61
2022/05/29 11:28:34;;;;;;;10.18;1.60;;;25.50;58.00;;;;;;5065616;28;20213;-62
2022/05/29 11:31:08;;;;;;;10.02;2.65;;;25.80;57.70;;;;;;5065864;28;20208;-59
2022/05/29 11:33:37;;;;;;;4.57;1.52;;;26.10;55.80;;;;;;5066406;28;20197;-58
2022/05/29 11:36:21;;;;;;;7.63;5.03;;;25.10;56.90;;;;;;5065366;28;20564;-63
2022/05/29 11:38:56;;;;;;;3.22;1.55;;;24.40;58.50;;;;;;5066837;28;20203;-60
2022/05/29 11:41:25;;;;;;;3.60;1.45;;;23.90;60.60;;;;;;5064892;28;20183;-61
2022/05/29 11:44:06;;;;;;;3.05;1.50;;;23.90;59.90;;;;;;5062576;28;20178;-60
2022/05/29 11:52:30;;;;;;;3.35;1.60;;;25.80;58.00;;;;;;5061865;28;20260;-64
2022/05/29 11:55:10;;;;;;;16.00;2.50;;;26.50;57.20;;;;;;5061879;28;20188;-59
2022/05/29 11:58:12;;;;;;;9.23;2.13;;;27.70;54.80;;;;;;5062094;28;20650;-62
2022/05/29 12:00:47;;;;;;;4.60;1.42;;;28.60;54.00;;;;;;5062758;28;20196;-62
2022/05/29 12:03:43;;;;;;;6.82;1.38;;;30.10;51.10;;;;;;5062112;28;20197;-61
2022/05/29 12:06:22;;;;;;;9.27;2.05;;;29.20;50.90;;;;;;5061874;28;20189;-62
2022/05/29 12:08:48;;;;;;;5.35;2.25;;;28.80;51.50;;;;;;5061910;28;20626;-58
2022/05/29 12:11:44;;;;;;;3.65;1.40;;;28.90;51.80;;;;;;5061901;28;20273;-60
2022/05/29 12:14:15;;;;;;;3.28;1.30;;;28.20;51.70;;;;;;5062799;28;20224;-62
2022/05/29 12:16:44;;;;;;;5.05;1.98;;;26.70;53.30;;;;;;5062282;28;20254;-65
2022/05/29 12:19:30;;;;;;;5.53;1.73;;;25.50;55.30;;;;;;5061936;28;20203;-61
2022/05/29 12:22:06;;;;;;;6.72;2.28;;;24.50;57.50;;;;;;5062864;28;20254;-60
2022/05/29 12:24:36;;;;;;;3.95;1.65;;;23.90;59.20;;;;;;5062176;28;20588;-63
2022/05/29 12:27:15;;;;;;;5.55;1.55;;;23.70;60.00;;;;;;5062782;28;20173;-60
2022/05/29 12:30:02;;;;;;;8.93;2.13;;;23.50;60.50;;;;;;5061779;28;20206;-61
2022/05/29 12:32:35;;;;;;;3.92;1.58;;;23.20;60.90;;;;;;5060345;28;20222;-62
2022/05/29 12:35:18;;;;;;;5.22;1.90;;;23.10;62.00;;;;;;5061922;28;20201;-62
2022/05/29 12:38:04;;;;;;;13.27;3.05;;;23.30;61.60;;;;;;5061912;28;20173;-61
2022/05/29 12:40:36;;;;;;;9.18;1.83;;;23.10;60.30;;;;;;5060831;28;20182;-60
2022/05/29 12:43:16;;;;;;;5.30;2.33;;;22.80;61.20;;;;;;5063285;28;20178;-58
2022/05/29 12:46:03;;;;;;;12.32;1.75;;;22.40;62.40;;;;;;5061763;28;20217;-61
2022/05/29 12:49:28;;;;;;;5.88;1.70;;;21.90;63.10;;;;;;5061429;28;20267;-57
2022/05/29 12:52:10;;;;;;;6.55;2.30;;;21.40;64.20;;;;;;5003243;28;20582;-59
2022/05/29 12:55:07;;;;;;;6.03;1.80;;;21.40;65.70;;;;;;5017100;28;20197;-60
2022/05/29 12:57:58;;;;;;;12.60;1.95;;;21.10;66.60;;;;;;5057542;28;20197;-59
2022/05/29 13:00:35;;;;;;;5.95;1.75;;;20.80;67.50;;;;;;5059719;28;20186;-63
2022/05/29 13:03:15;;;;;;;6.18;2.17;;;20.60;68.50;;;;;;5060439;28;20194;-61
2022/05/29 13:06:00;;;;;;;6.70;2.80;;;20.60;68.40;;;;;;5061006;28;20258;-62
2022/05/29 13:09:02;;;;;;;5.15;1.73;;;20.70;68.10;;;;;;5061137;28;20241;-63
2022/05/29 13:11:32;;;;;;;9.10;2.45;;;20.80;67.90;;;;;;5061260;28;20720;-60
2022/05/29 13:14:03;;;;;;;5.68;1.92;;;20.80;68.00;;;;;;5060455;28;20190;-64
2022/05/29 13:16:34;;;;;;;8.27;3.50;;;20.70;68.20;;;;;;5060000;28;20293;-61
2022/05/29 13:19:14;;;;;;;8.90;2.03;;;20.60;68.40;;;;;;5060966;28;20182;-62
2022/05/29 13:22:01;;;;;;;6.30;2.28;;;20.60;68.90;;;;;;5059452;28;20181;-63
2022/05/29 13:24:46;;;;;;;6.47;2.28;;;20.70;68.70;;;;;;5061497;28;20234;-61
2022/05/29 13:27:17;;;;;;;5.95;2.63;;;21.00;68.70;;;;;;5060818;28;20185;-64
2022/05/29 13:29:45;;;;;;;5.43;1.95;;;21.30;68.20;;;;;;5061132;28;20213;-60
2022/05/29 13:32:13;;;;;;;6.72;2.08;;;21.60;67.30;;;;;;5059163;28;20266;-61
2022/05/29 13:34:47;;;;;;;4.07;2.53;;;21.80;66.30;;;;;;5062532;28;20239;-60
2022/05/29 13:37:38;;;;;;;6.68;2.72;;;21.60;67.00;;;;;;5062603;28;20194;-60
2022/05/29 13:40:22;;;;;;;9.50;2.60;;;21.80;67.00;;;;;;5063581;28;20193;-64
2022/05/29 13:43:12;;;;;;;6.55;1.70;;;22.20;66.60;;;;;;5062862;28;20205;-62
2022/05/29 13:45:45;;;;;;;9.88;1.70;;;22.80;65.80;;;;;;5060637;28;20557;-59
2022/05/29 13:48:25;;;;;;;2.78;1.75;;;23.20;64.00;;;;;;5060628;28;20638;-61
2022/05/29 13:51:24;;;;;;;11.63;2.55;;;23.00;64.40;;;;;;5060536;28;21095;-58
2022/05/29 13:54:01;;;;;;;4.75;2.10;;;22.60;65.60;;;;;;5061359;28;20586;-63
2022/05/29 13:57:01;;;;;;;9.27;1.95;;;22.10;66.30;;;;;;5058956;28;20193;-64
2022/05/29 14:05:47;;;;;;;7.07;2.72;;;20.70;69.90;;;;;;5008363;28;20287;-58
2022/05/29 14:08:19;;;;;;;8.27;2.70;;;20.70;70.30;;;;;;5008571;28;20250;-61